sensor_id;sensor_type;location;lat;lon;timestamp;temperature;humidity
65245;DHT22;51846;48.692;2.382;2022-07-29T00:00:34;19.81;55.02
65245;DHT22;51846;48.692;2.382;2022-07-29T00:03:00;19.77;55.01
65245;DHT22;51846;48.692;2.382;2022-07-29T00:05:25;19.74;55.27
65245;DHT22;51846;48.692;2.382;2022-07-29T00:07:50;19.72;55.44
65245;DHT22;51846;48.692;2.382;2022-07-29T00:10:16;19.69;55.17
65245;DHT22;51846;48.692;2.382;2022-07-29T00:12:41;19.65;55.09
65245;DHT22;51846;48.692;2.382;2022-07-29T00:15:07;19.59;55.26
65245;DHT22;51846;48.692;2.382;2022-07-29T00:17:32;19.57;55.94
65245;DHT22;51846;48.692;2.382;2022-07-29T00:19:59;19.57;55.11
65245;DHT22;51846;48.692;2.382;2022-07-29T00:22:24;19.57;55.13
65245;DHT22;51846;48.692;2.382;2022-07-29T00:24:49;19.54;55.33
65245;DHT22;51846;48.692;2.382;2022-07-29T00:27:15;19.48;55.05
65245;DHT22;51846;48.692;2.382;2022-07-29T00:29:41;19.48;55.33
65245;DHT22;51846;48.692;2.382;2022-07-29T00:32:07;19.47;55.29
65245;DHT22;51846;48.692;2.382;2022-07-29T00:34:32;19.38;55.48
65245;DHT22;51846;48.692;2.382;2022-07-29T00:37:16;19.31;55.44
65245;DHT22;51846;48.692;2.382;2022-07-29T00:39:42;19.28;55.63
65245;DHT22;51846;48.692;2.382;2022-07-29T00:42:07;19.26;55.87
65245;DHT22;51846;48.692;2.382;2022-07-29T00:44:40;19.21;55.74
65245;DHT22;51846;48.692;2.382;2022-07-29T00:47:06;19.24;55.67
65245;DHT22;51846;48.692;2.382;2022-07-29T00:49:32;19.24;55.80
65245;DHT22;51846;48.692;2.382;2022-07-29T00:52:00;19.20;55.82
65245;DHT22;51846;48.692;2.382;2022-07-29T00:54:26;19.18;56.06
65245;DHT22;51846;48.692;2.382;2022-07-29T00:56:52;19.14;56.03
65245;DHT22;51846;48.692;2.382;2022-07-29T00:59:18;19.14;56.19
65245;DHT22;51846;48.692;2.382;2022-07-29T01:01:43;19.11;56.37
65245;DHT22;51846;48.692;2.382;2022-07-29T01:04:08;19.08;56.50
65245;DHT22;51846;48.692;2.382;2022-07-29T01:06:34;19.07;56.92
65245;DHT22;51846;48.692;2.382;2022-07-29T01:09:00;19.03;57.30
65245;DHT22;51846;48.692;2.382;2022-07-29T01:11:25;19.10;57.06
65245;DHT22;51846;48.692;2.382;2022-07-29T01:13:51;19.07;57.37
65245;DHT22;51846;48.692;2.382;2022-07-29T01:16:46;19.06;57.13
65245;DHT22;51846;48.692;2.382;2022-07-29T01:30:29;18.94;57.94
65245;DHT22;51846;48.692;2.382;2022-07-29T01:32:59;18.90;58.19
65245;DHT22;51846;48.692;2.382;2022-07-29T01:35:31;18.84;58.41
65245;DHT22;51846;48.692;2.382;2022-07-29T01:38:09;18.80;58.72
65245;DHT22;51846;48.692;2.382;2022-07-29T01:40:43;18.82;58.88
65245;DHT22;51846;48.692;2.382;2022-07-29T01:43:11;18.79;59.07
65245;DHT22;51846;48.692;2.382;2022-07-29T01:45:56;18.76;59.17
65245;DHT22;51846;48.692;2.382;2022-07-29T01:48:27;18.74;59.09
65245;DHT22;51846;48.692;2.382;2022-07-29T01:51:04;18.72;58.28
65245;DHT22;51846;48.692;2.382;2022-07-29T01:56:31;18.64;58.51
65245;DHT22;51846;48.692;2.382;2022-07-29T01:58:59;18.60;58.59
65245;DHT22;51846;48.692;2.382;2022-07-29T02:01:26;18.57;58.81
65245;DHT22;51846;48.692;2.382;2022-07-29T02:03:53;18.53;58.92
65245;DHT22;51846;48.692;2.382;2022-07-29T02:06:22;18.52;59.16
65245;DHT22;51846;48.692;2.382;2022-07-29T02:08:49;18.52;59.75
65245;DHT22;51846;48.692;2.382;2022-07-29T02:11:15;18.55;59.61
65245;DHT22;51846;48.692;2.382;2022-07-29T02:13:41;18.53;60.22
65245;DHT22;51846;48.692;2.382;2022-07-29T02:16:09;18.48;60.80
65245;DHT22;51846;48.692;2.382;2022-07-29T02:18:37;18.25;61.14
65245;DHT22;51846;48.692;2.382;2022-07-29T02:21:04;18.19;61.25
65245;DHT22;51846;48.692;2.382;2022-07-29T02:23:30;18.24;60.99
65245;DHT22;51846;48.692;2.382;2022-07-29T02:25:57;18.38;61.10
65245;DHT22;51846;48.692;2.382;2022-07-29T02:28:25;18.35;60.27
65245;DHT22;51846;48.692;2.382;2022-07-29T02:30:53;18.32;59.97
65245;DHT22;51846;48.692;2.382;2022-07-29T02:33:20;18.38;60.22
65245;DHT22;51846;48.692;2.382;2022-07-29T02:35:47;18.42;60.36
65245;DHT22;51846;48.692;2.382;2022-07-29T02:38:15;18.49;59.79
65245;DHT22;51846;48.692;2.382;2022-07-29T02:41:10;18.46;59.54
65245;DHT22;51846;48.692;2.382;2022-07-29T02:43:36;18.55;59.74
65245;DHT22;51846;48.692;2.382;2022-07-29T02:46:05;18.55;59.49
65245;DHT22;51846;48.692;2.382;2022-07-29T02:48:45;18.52;59.77
65245;DHT22;51846;48.692;2.382;2022-07-29T02:51:18;18.55;59.86
65245;DHT22;51846;48.692;2.382;2022-07-29T02:53:49;18.55;60.08
65245;DHT22;51846;48.692;2.382;2022-07-29T02:56:17;18.46;60.45
65245;DHT22;51846;48.692;2.382;2022-07-29T02:58:54;18.43;60.53
65245;DHT22;51846;48.692;2.382;2022-07-29T03:01:22;18.36;60.77
65245;DHT22;51846;48.692;2.382;2022-07-29T03:03:51;18.33;61.10
65245;DHT22;51846;48.692;2.382;2022-07-29T03:06:19;18.25;61.31
65245;DHT22;51846;48.692;2.382;2022-07-29T03:08:46;18.19;61.42
65245;DHT22;51846;48.692;2.382;2022-07-29T03:11:12;18.12;61.41
65245;DHT22;51846;48.692;2.382;2022-07-29T03:13:39;18.09;61.70
65245;DHT22;51846;48.692;2.382;2022-07-29T03:16:05;18.05;62.04
65245;DHT22;51846;48.692;2.382;2022-07-29T03:18:31;18.05;62.30
65245;DHT22;51846;48.692;2.382;2022-07-29T03:20:57;18.01;62.41
65245;DHT22;51846;48.692;2.382;2022-07-29T03:23:23;17.97;61.38
65245;DHT22;51846;48.692;2.382;2022-07-29T03:25:52;17.99;61.64
65245;DHT22;51846;48.692;2.382;2022-07-29T03:28:18;17.99;61.85
65245;DHT22;51846;48.692;2.382;2022-07-29T03:30:44;18.05;61.63
65245;DHT22;51846;48.692;2.382;2022-07-29T03:33:10;18.06;61.76
65245;DHT22;51846;48.692;2.382;2022-07-29T03:35:35;18.06;62.18
65245;DHT22;51846;48.692;2.382;2022-07-29T03:38:00;18.06;62.28
65245;DHT22;51846;48.692;2.382;2022-07-29T03:40:31;18.02;61.54
65245;DHT22;51846;48.692;2.382;2022-07-29T03:42:59;17.64;62.46
65245;DHT22;51846;48.692;2.382;2022-07-29T03:45:26;17.58;63.27
65245;DHT22;51846;48.692;2.382;2022-07-29T03:47:58;17.68;62.79
65245;DHT22;51846;48.692;2.382;2022-07-29T03:50:24;17.77;62.78
65245;DHT22;51846;48.692;2.382;2022-07-29T03:52:50;17.82;62.71
65245;DHT22;51846;48.692;2.382;2022-07-29T03:55:16;17.91;62.57
65245;DHT22;51846;48.692;2.382;2022-07-29T03:57:43;17.94;62.46
65245;DHT22;51846;48.692;2.382;2022-07-29T04:00:10;17.94;62.60
65245;DHT22;51846;48.692;2.382;2022-07-29T04:02:36;17.87;62.95
65245;DHT22;51846;48.692;2.382;2022-07-29T04:05:01;17.82;63.17
65245;DHT22;51846;48.692;2.382;2022-07-29T04:07:26;17.82;63.27
65245;DHT22;51846;48.692;2.382;2022-07-29T04:09:52;17.79;63.74
65245;DHT22;51846;48.692;2.382;2022-07-29T04:12:17;17.79;63.50
65245;DHT22;51846;48.692;2.382;2022-07-29T04:14:43;17.84;63.31
65245;DHT22;51846;48.692;2.382;2022-07-29T04:17:11;17.88;63.51
65245;DHT22;51846;48.692;2.382;2022-07-29T04:19:37;17.91;63.51
65245;DHT22;51846;48.692;2.382;2022-07-29T04:22:02;17.87;63.46
65245;DHT22;51846;48.692;2.382;2022-07-29T04:24:28;17.84;63.79
65245;DHT22;51846;48.692;2.382;2022-07-29T04:26:53;17.81;63.80
65245;DHT22;51846;48.692;2.382;2022-07-29T04:29:19;17.82;63.80
65245;DHT22;51846;48.692;2.382;2022-07-29T04:31:45;17.81;63.88
65245;DHT22;51846;48.692;2.382;2022-07-29T04:34:11;17.78;64.66
65245;DHT22;51846;48.692;2.382;2022-07-29T04:36:36;17.82;63.96
65245;DHT22;51846;48.692;2.382;2022-07-29T04:39:02;17.77;64.20
65245;DHT22;51846;48.692;2.382;2022-07-29T04:41:28;17.78;64.21
65245;DHT22;51846;48.692;2.382;2022-07-29T04:43:54;17.77;64.24
65245;DHT22;51846;48.692;2.382;2022-07-29T04:46:20;17.77;64.37
65245;DHT22;51846;48.692;2.382;2022-07-29T04:48:46;17.78;64.40
65245;DHT22;51846;48.692;2.382;2022-07-29T04:51:13;17.82;64.30
65245;DHT22;51846;48.692;2.382;2022-07-29T04:53:38;17.79;64.60
65245;DHT22;51846;48.692;2.382;2022-07-29T04:56:04;17.81;64.30
65245;DHT22;51846;48.692;2.382;2022-07-29T04:58:29;17.82;64.10
65245;DHT22;51846;48.692;2.382;2022-07-29T05:00:55;17.82;64.00
65245;DHT22;51846;48.692;2.382;2022-07-29T05:03:20;17.68;64.92
65245;DHT22;51846;48.692;2.382;2022-07-29T05:05:46;17.67;65.76
65245;DHT22;51846;48.692;2.382;2022-07-29T05:08:11;17.79;65.17
65245;DHT22;51846;48.692;2.382;2022-07-29T05:10:36;17.87;65.16
65245;DHT22;51846;48.692;2.382;2022-07-29T05:13:06;17.82;65.79
65245;DHT22;51846;48.692;2.382;2022-07-29T05:15:33;17.82;67.89
65245;DHT22;51846;48.692;2.382;2022-07-29T05:17:59;17.85;65.87
65245;DHT22;51846;48.692;2.382;2022-07-29T05:20:24;17.73;63.61
65245;DHT22;51846;48.692;2.382;2022-07-29T05:22:54;17.64;63.69
65245;DHT22;51846;48.692;2.382;2022-07-29T05:25:19;17.91;63.68
65245;DHT22;51846;48.692;2.382;2022-07-29T05:27:45;18.08;63.05
65245;DHT22;51846;48.692;2.382;2022-07-29T05:30:10;18.15;63.06
65245;DHT22;51846;48.692;2.382;2022-07-29T05:32:36;18.22;62.73
65245;DHT22;51846;48.692;2.382;2022-07-29T05:35:01;18.21;62.19
65245;DHT22;51846;48.692;2.382;2022-07-29T05:37:26;17.88;62.69
65245;DHT22;51846;48.692;2.382;2022-07-29T05:39:52;18.01;62.74
65245;DHT22;51846;48.692;2.382;2022-07-29T05:42:17;18.09;62.21
65245;DHT22;51846;48.692;2.382;2022-07-29T05:44:42;18.16;61.99
65245;DHT22;51846;48.692;2.382;2022-07-29T05:47:08;18.06;62.35
65245;DHT22;51846;48.692;2.382;2022-07-29T05:49:33;18.01;62.96
65245;DHT22;51846;48.692;2.382;2022-07-29T05:51:59;17.95;63.20
65245;DHT22;51846;48.692;2.382;2022-07-29T05:54:24;17.98;63.32
65245;DHT22;51846;48.692;2.382;2022-07-29T05:56:50;17.89;63.52
65245;DHT22;51846;48.692;2.382;2022-07-29T05:59:15;17.85;63.74
65245;DHT22;51846;48.692;2.382;2022-07-29T06:01:40;17.82;64.02
65245;DHT22;51846;48.692;2.382;2022-07-29T06:04:06;18.01;63.56
65245;DHT22;51846;48.692;2.382;2022-07-29T06:06:32;18.22;63.18
65245;DHT22;51846;48.692;2.382;2022-07-29T06:08:59;18.16;63.19
65245;DHT22;51846;48.692;2.382;2022-07-29T06:11:24;18.12;63.00
65245;DHT22;51846;48.692;2.382;2022-07-29T06:13:49;18.16;62.93
65245;DHT22;51846;48.692;2.382;2022-07-29T06:16:15;18.31;62.43
65245;DHT22;51846;48.692;2.382;2022-07-29T06:18:41;18.48;62.35
65245;DHT22;51846;48.692;2.382;2022-07-29T06:21:09;18.57;62.46
65245;DHT22;51846;48.692;2.382;2022-07-29T06:23:36;18.60;62.15
65245;DHT22;51846;48.692;2.382;2022-07-29T06:26:02;18.66;61.54
65245;DHT22;51846;48.692;2.382;2022-07-29T06:28:27;18.79;61.22
65245;DHT22;51846;48.692;2.382;2022-07-29T06:30:53;18.96;60.46
65245;DHT22;51846;48.692;2.382;2022-07-29T06:33:19;19.06;60.45
65245;DHT22;51846;48.692;2.382;2022-07-29T06:35:44;19.27;59.41
65245;DHT22;51846;48.692;2.382;2022-07-29T06:38:12;19.32;61.27
65245;DHT22;51846;48.692;2.382;2022-07-29T06:40:41;19.39;61.59
65245;DHT22;51846;48.692;2.382;2022-07-29T06:43:35;19.46;59.38
65245;DHT22;51846;48.692;2.382;2022-07-29T06:46:04;19.54;59.17
65245;DHT22;51846;48.692;2.382;2022-07-29T06:48:30;19.51;60.22
65245;DHT22;51846;48.692;2.382;2022-07-29T06:50:55;19.48;59.36
65245;DHT22;51846;48.692;2.382;2022-07-29T06:53:21;19.67;58.64
65245;DHT22;51846;48.692;2.382;2022-07-29T06:55:47;19.78;58.42
65245;DHT22;51846;48.692;2.382;2022-07-29T06:58:12;19.82;57.81
65245;DHT22;51846;48.692;2.382;2022-07-29T07:00:41;19.89;57.67
65245;DHT22;51846;48.692;2.382;2022-07-29T07:03:06;19.95;57.84
65245;DHT22;51846;48.692;2.382;2022-07-29T07:05:31;20.05;59.05
65245;DHT22;51846;48.692;2.382;2022-07-29T07:07:57;20.12;58.03
65245;DHT22;51846;48.692;2.382;2022-07-29T07:10:22;20.21;56.97
65245;DHT22;51846;48.692;2.382;2022-07-29T07:12:48;20.23;57.70
65245;DHT22;51846;48.692;2.382;2022-07-29T07:15:13;20.02;57.31
65245;DHT22;51846;48.692;2.382;2022-07-29T07:17:38;20.11;57.91
65245;DHT22;51846;48.692;2.382;2022-07-29T07:20:05;20.12;57.37
65245;DHT22;51846;48.692;2.382;2022-07-29T07:22:31;19.98;56.87
65245;DHT22;51846;48.692;2.382;2022-07-29T07:24:56;19.86;57.50
65245;DHT22;51846;48.692;2.382;2022-07-29T07:27:21;19.81;57.89
65245;DHT22;51846;48.692;2.382;2022-07-29T07:29:47;19.92;58.07
65245;DHT22;51846;48.692;2.382;2022-07-29T07:32:12;19.92;58.24
65245;DHT22;51846;48.692;2.382;2022-07-29T07:34:38;19.99;58.02
65245;DHT22;51846;48.692;2.382;2022-07-29T07:37:03;20.08;57.35
65245;DHT22;51846;48.692;2.382;2022-07-29T07:39:29;20.22;57.64
65245;DHT22;51846;48.692;2.382;2022-07-29T07:41:54;20.42;56.91
65245;DHT22;51846;48.692;2.382;2022-07-29T07:44:19;20.50;55.34
65245;DHT22;51846;48.692;2.382;2022-07-29T07:46:45;20.64;55.24
65245;DHT22;51846;48.692;2.382;2022-07-29T07:49:11;20.67;54.96
65245;DHT22;51846;48.692;2.382;2022-07-29T07:51:36;20.80;54.28
65245;DHT22;51846;48.692;2.382;2022-07-29T07:54:01;20.81;53.68
65245;DHT22;51846;48.692;2.382;2022-07-29T07:56:27;20.83;54.56
65245;DHT22;51846;48.692;2.382;2022-07-29T07:58:53;20.79;55.85
65245;DHT22;51846;48.692;2.382;2022-07-29T08:01:18;20.93;56.06
65245;DHT22;51846;48.692;2.382;2022-07-29T08:03:46;20.97;54.10
65245;DHT22;51846;48.692;2.382;2022-07-29T08:06:11;21.04;54.76
65245;DHT22;51846;48.692;2.382;2022-07-29T08:08:37;21.27;54.40
65245;DHT22;51846;48.692;2.382;2022-07-29T08:11:02;21.28;53.84
65245;DHT22;51846;48.692;2.382;2022-07-29T08:13:28;21.39;54.04
65245;DHT22;51846;48.692;2.382;2022-07-29T08:15:55;21.58;53.75
65245;DHT22;51846;48.692;2.382;2022-07-29T08:18:26;21.69;52.00
65245;DHT22;51846;48.692;2.382;2022-07-29T08:20:52;21.69;52.20
65245;DHT22;51846;48.692;2.382;2022-07-29T08:23:17;21.72;52.32
65245;DHT22;51846;48.692;2.382;2022-07-29T08:25:44;21.88;51.90
65245;DHT22;51846;48.692;2.382;2022-07-29T08:28:10;21.96;51.19
65245;DHT22;51846;48.692;2.382;2022-07-29T08:30:35;22.02;50.67
65245;DHT22;51846;48.692;2.382;2022-07-29T08:33:01;22.12;50.69
65245;DHT22;51846;48.692;2.382;2022-07-29T08:35:26;22.08;50.64
65245;DHT22;51846;48.692;2.382;2022-07-29T08:37:52;22.19;50.51
65245;DHT22;51846;48.692;2.382;2022-07-29T08:40:18;22.24;51.20
65245;DHT22;51846;48.692;2.382;2022-07-29T08:42:45;22.19;51.16
65245;DHT22;51846;48.692;2.382;2022-07-29T08:45:11;22.26;49.94
65245;DHT22;51846;48.692;2.382;2022-07-29T08:47:38;22.44;49.76
65245;DHT22;51846;48.692;2.382;2022-07-29T08:50:08;22.57;49.57
65245;DHT22;51846;48.692;2.382;2022-07-29T08:52:37;22.86;49.35
65245;DHT22;51846;48.692;2.382;2022-07-29T08:55:05;23.00;48.92
65245;DHT22;51846;48.692;2.382;2022-07-29T08:57:33;23.14;47.57
65245;DHT22;51846;48.692;2.382;2022-07-29T09:00:00;23.32;46.97
65245;DHT22;51846;48.692;2.382;2022-07-29T09:02:28;23.51;46.51
65245;DHT22;51846;48.692;2.382;2022-07-29T09:04:56;23.50;46.74
65245;DHT22;51846;48.692;2.382;2022-07-29T09:07:22;23.54;47.45
65245;DHT22;51846;48.692;2.382;2022-07-29T09:09:47;23.66;45.68
65245;DHT22;51846;48.692;2.382;2022-07-29T09:12:13;23.75;46.35
65245;DHT22;51846;48.692;2.382;2022-07-29T09:14:39;24.01;44.57
65245;DHT22;51846;48.692;2.382;2022-07-29T09:17:05;24.26;43.91
65245;DHT22;51846;48.692;2.382;2022-07-29T09:19:33;24.35;44.02
65245;DHT22;51846;48.692;2.382;2022-07-29T09:22:02;24.33;42.82
65245;DHT22;51846;48.692;2.382;2022-07-29T09:27:00;24.56;43.89
65245;DHT22;51846;48.692;2.382;2022-07-29T09:29:26;24.70;43.94
65245;DHT22;51846;48.692;2.382;2022-07-29T09:31:54;24.88;43.37
65245;DHT22;51846;48.692;2.382;2022-07-29T09:34:27;25.07;42.45
65245;DHT22;51846;48.692;2.382;2022-07-29T09:36:54;25.14;41.29
65245;DHT22;51846;48.692;2.382;2022-07-29T09:39:37;25.22;42.47
65245;DHT22;51846;48.692;2.382;2022-07-29T09:42:09;25.49;41.25
65245;DHT22;51846;48.692;2.382;2022-07-29T09:44:46;25.62;40.74
65245;DHT22;51846;48.692;2.382;2022-07-29T09:47:13;25.62;40.56
65245;DHT22;51846;48.692;2.382;2022-07-29T09:49:56;25.63;41.11
65245;DHT22;51846;48.692;2.382;2022-07-29T09:52:23;25.55;40.06
65245;DHT22;51846;48.692;2.382;2022-07-29T09:54:49;25.52;41.00
65245;DHT22;51846;48.692;2.382;2022-07-29T09:57:41;25.59;40.13
65245;DHT22;51846;48.692;2.382;2022-07-29T10:00:09;25.59;40.14
65245;DHT22;51846;48.692;2.382;2022-07-29T10:02:37;25.45;40.43
65245;DHT22;51846;48.692;2.382;2022-07-29T10:05:05;25.63;40.07
65245;DHT22;51846;48.692;2.382;2022-07-29T10:08:03;25.68;40.76
65245;DHT22;51846;48.692;2.382;2022-07-29T10:10:31;25.71;41.23
65245;DHT22;51846;48.692;2.382;2022-07-29T10:13:00;25.82;40.69
65245;DHT22;51846;48.692;2.382;2022-07-29T10:15:29;25.86;39.49
65245;DHT22;51846;48.692;2.382;2022-07-29T10:17:55;25.93;40.55
65245;DHT22;51846;48.692;2.382;2022-07-29T10:20:22;25.78;39.28
65245;DHT22;51846;48.692;2.382;2022-07-29T10:22:48;25.95;40.19
65245;DHT22;51846;48.692;2.382;2022-07-29T10:25:15;25.99;39.69
65245;DHT22;51846;48.692;2.382;2022-07-29T10:27:41;25.95;38.62
65245;DHT22;51846;48.692;2.382;2022-07-29T10:30:08;26.02;40.49
65245;DHT22;51846;48.692;2.382;2022-07-29T10:46:23;26.64;36.85
65245;DHT22;51846;48.692;2.382;2022-07-29T10:49:11;26.74;36.33
65245;DHT22;51846;48.692;2.382;2022-07-29T11:05:08;26.90;36.10
65245;DHT22;51846;48.692;2.382;2022-07-29T11:07:35;27.04;37.16
65245;DHT22;51846;48.692;2.382;2022-07-29T11:15:07;27.55;35.11
65245;DHT22;51846;48.692;2.382;2022-07-29T11:20:44;27.41;37.61
65245;DHT22;51846;48.692;2.382;2022-07-29T11:34:27;27.92;34.54
65245;DHT22;51846;48.692;2.382;2022-07-29T11:39:39;27.55;35.02
65245;DHT22;51846;48.692;2.382;2022-07-29T11:45:02;27.39;35.84
65245;DHT22;51846;48.692;2.382;2022-07-29T11:47:34;27.55;35.37
65245;DHT22;51846;48.692;2.382;2022-07-29T11:50:01;27.73;36.94
65245;DHT22;51846;48.692;2.382;2022-07-29T11:52:38;27.95;35.05
65245;DHT22;51846;48.692;2.382;2022-07-29T11:55:09;28.10;35.15
65245;DHT22;51846;48.692;2.382;2022-07-29T11:57:35;28.06;35.60
65245;DHT22;51846;48.692;2.382;2022-07-29T12:00:04;28.02;35.19
65245;DHT22;51846;48.692;2.382;2022-07-29T12:02:42;28.02;34.77
65245;DHT22;51846;48.692;2.382;2022-07-29T12:05:09;28.03;36.37
65245;DHT22;51846;48.692;2.382;2022-07-29T12:07:38;28.27;35.58
65245;DHT22;51846;48.692;2.382;2022-07-29T12:10:05;28.51;33.83
65245;DHT22;51846;48.692;2.382;2022-07-29T12:12:31;28.68;34.48
65245;DHT22;51846;48.692;2.382;2022-07-29T12:14:56;28.72;33.24
65245;DHT22;51846;48.692;2.382;2022-07-29T12:17:33;28.87;32.88
65245;DHT22;51846;48.692;2.382;2022-07-29T12:20:03;28.86;33.28
65245;DHT22;51846;48.692;2.382;2022-07-29T12:22:34;28.86;33.35
65245;DHT22;51846;48.692;2.382;2022-07-29T12:25:07;28.75;33.32
65245;DHT22;51846;48.692;2.382;2022-07-29T12:27:33;28.77;32.97
65245;DHT22;51846;48.692;2.382;2022-07-29T12:30:00;28.82;33.85
65245;DHT22;51846;48.692;2.382;2022-07-29T12:35:11;28.86;34.20
65245;DHT22;51846;48.692;2.382;2022-07-29T12:37:38;28.87;33.90
65245;DHT22;51846;48.692;2.382;2022-07-29T12:40:05;28.47;32.56
65245;DHT22;51846;48.692;2.382;2022-07-29T12:42:31;28.47;34.02
65245;DHT22;51846;48.692;2.382;2022-07-29T12:44:57;28.68;33.37
65245;DHT22;51846;48.692;2.382;2022-07-29T12:47:23;28.82;34.02
65245;DHT22;51846;48.692;2.382;2022-07-29T12:49:49;28.87;33.16
65245;DHT22;51846;48.692;2.382;2022-07-29T12:52:32;28.87;33.82
65245;DHT22;51846;48.692;2.382;2022-07-29T12:54:58;28.94;33.12
65245;DHT22;51846;48.692;2.382;2022-07-29T12:57:24;28.94;32.78
65245;DHT22;51846;48.692;2.382;2022-07-29T13:00:03;28.84;32.96
65245;DHT22;51846;48.692;2.382;2022-07-29T13:02:29;28.81;32.73
65245;DHT22;51846;48.692;2.382;2022-07-29T13:04:56;28.86;33.16
65245;DHT22;51846;48.692;2.382;2022-07-29T13:07:28;28.84;34.19
65245;DHT22;51846;48.692;2.382;2022-07-29T13:10:09;28.90;33.63
65245;DHT22;51846;48.692;2.382;2022-07-29T13:12:35;28.95;33.33
65245;DHT22;51846;48.692;2.382;2022-07-29T13:15:12;29.18;32.83
65245;DHT22;51846;48.692;2.382;2022-07-29T13:17:42;29.32;32.98
65245;DHT22;51846;48.692;2.382;2022-07-29T13:20:12;29.41;33.58
65245;DHT22;51846;48.692;2.382;2022-07-29T13:22:38;29.49;32.45
65245;DHT22;51846;48.692;2.382;2022-07-29T13:25:08;29.51;32.16
65245;DHT22;51846;48.692;2.382;2022-07-29T13:27:35;29.42;32.16
65245;DHT22;51846;48.692;2.382;2022-07-29T13:30:08;29.25;33.36
65245;DHT22;51846;48.692;2.382;2022-07-29T13:32:35;29.26;32.92
65245;DHT22;51846;48.692;2.382;2022-07-29T13:35:06;29.19;32.41
65245;DHT22;51846;48.692;2.382;2022-07-29T13:37:33;29.10;32.39
65245;DHT22;51846;48.692;2.382;2022-07-29T13:40:00;28.98;32.61
65245;DHT22;51846;48.692;2.382;2022-07-29T13:42:28;28.81;33.62
65245;DHT22;51846;48.692;2.382;2022-07-29T13:44:53;28.67;33.75
65245;DHT22;51846;48.692;2.382;2022-07-29T13:47:19;28.75;34.01
65245;DHT22;51846;48.692;2.382;2022-07-29T13:49:45;28.90;33.46
65245;DHT22;51846;48.692;2.382;2022-07-29T13:52:11;28.92;32.94
65245;DHT22;51846;48.692;2.382;2022-07-29T13:54:37;28.95;34.04
65245;DHT22;51846;48.692;2.382;2022-07-29T13:57:05;28.98;33.94
65245;DHT22;51846;48.692;2.382;2022-07-29T13:59:31;29.04;33.37
65245;DHT22;51846;48.692;2.382;2022-07-29T14:01:56;29.18;33.12
65245;DHT22;51846;48.692;2.382;2022-07-29T14:04:21;29.34;32.68
65245;DHT22;51846;48.692;2.382;2022-07-29T14:06:49;29.41;31.68
65245;DHT22;51846;48.692;2.382;2022-07-29T14:09:14;29.36;32.40
65245;DHT22;51846;48.692;2.382;2022-07-29T14:11:39;29.39;31.64
65245;DHT22;51846;48.692;2.382;2022-07-29T14:14:05;29.41;31.99
65245;DHT22;51846;48.692;2.382;2022-07-29T14:16:30;29.21;32.43
65245;DHT22;51846;48.692;2.382;2022-07-29T14:18:56;29.29;33.18
65245;DHT22;51846;48.692;2.382;2022-07-29T14:21:21;29.36;31.59
65245;DHT22;51846;48.692;2.382;2022-07-29T14:23:46;29.28;32.01
65245;DHT22;51846;48.692;2.382;2022-07-29T14:26:12;29.22;32.05
65245;DHT22;51846;48.692;2.382;2022-07-29T14:28:38;29.18;31.47
65245;DHT22;51846;48.692;2.382;2022-07-29T14:31:03;28.81;31.88
65245;DHT22;51846;48.692;2.382;2022-07-29T14:33:28;28.84;32.51
65245;DHT22;51846;48.692;2.382;2022-07-29T14:35:54;28.75;32.30
65245;DHT22;51846;48.692;2.382;2022-07-29T14:38:19;28.95;31.89
65245;DHT22;51846;48.692;2.382;2022-07-29T14:40:44;29.01;32.97
65245;DHT22;51846;48.692;2.382;2022-07-29T14:43:12;29.08;32.26
65245;DHT22;51846;48.692;2.382;2022-07-29T14:45:37;29.11;32.27
65245;DHT22;51846;48.692;2.382;2022-07-29T14:48:03;29.11;31.60
65245;DHT22;51846;48.692;2.382;2022-07-29T14:50:28;29.02;32.24
65245;DHT22;51846;48.692;2.382;2022-07-29T14:52:53;29.00;32.62
65245;DHT22;51846;48.692;2.382;2022-07-29T14:55:19;28.97;32.29
65245;DHT22;51846;48.692;2.382;2022-07-29T14:57:45;28.95;32.03
65245;DHT22;51846;48.692;2.382;2022-07-29T15:00:10;29.04;32.44
65245;DHT22;51846;48.692;2.382;2022-07-29T15:02:36;29.22;32.09
65245;DHT22;51846;48.692;2.382;2022-07-29T15:05:02;29.19;31.48
65245;DHT22;51846;48.692;2.382;2022-07-29T15:07:28;29.22;32.31
65245;DHT22;51846;48.692;2.382;2022-07-29T15:09:53;29.15;31.66
65245;DHT22;51846;48.692;2.382;2022-07-29T15:12:18;29.02;32.05
65245;DHT22;51846;48.692;2.382;2022-07-29T15:14:44;28.97;32.04
65245;DHT22;51846;48.692;2.382;2022-07-29T15:17:09;28.94;32.02
65245;DHT22;51846;48.692;2.382;2022-07-29T15:19:35;28.88;31.66
65245;DHT22;51846;48.692;2.382;2022-07-29T15:22:00;28.84;31.94
65245;DHT22;51846;48.692;2.382;2022-07-29T15:24:26;28.75;32.66
65245;DHT22;51846;48.692;2.382;2022-07-29T15:26:51;28.71;32.81
65245;DHT22;51846;48.692;2.382;2022-07-29T15:29:17;28.71;33.80
65245;DHT22;51846;48.692;2.382;2022-07-29T15:31:42;28.71;32.98
65245;DHT22;51846;48.692;2.382;2022-07-29T15:34:08;28.77;32.98
65245;DHT22;51846;48.692;2.382;2022-07-29T15:36:34;28.87;32.89
65245;DHT22;51846;48.692;2.382;2022-07-29T15:38:59;29.04;32.38
65245;DHT22;51846;48.692;2.382;2022-07-29T15:41:25;29.16;32.71
65245;DHT22;51846;48.692;2.382;2022-07-29T15:43:50;29.24;32.16
65245;DHT22;51846;48.692;2.382;2022-07-29T15:46:17;29.38;31.67
65245;DHT22;51846;48.692;2.382;2022-07-29T15:49:02;29.46;31.92
65245;DHT22;51846;48.692;2.382;2022-07-29T15:51:28;29.59;31.37
65245;DHT22;51846;48.692;2.382;2022-07-29T15:53:53;29.67;31.42
65245;DHT22;51846;48.692;2.382;2022-07-29T15:56:19;29.76;30.89
65245;DHT22;51846;48.692;2.382;2022-07-29T15:58:44;29.73;30.73
65245;DHT22;51846;48.692;2.382;2022-07-29T16:01:09;29.79;30.75
65245;DHT22;51846;48.692;2.382;2022-07-29T16:03:35;29.77;30.54
65245;DHT22;51846;48.692;2.382;2022-07-29T16:06:01;29.83;30.69
65245;DHT22;51846;48.692;2.382;2022-07-29T16:08:26;29.85;30.44
65245;DHT22;51846;48.692;2.382;2022-07-29T16:10:51;29.89;30.41
65245;DHT22;51846;48.692;2.382;2022-07-29T16:13:17;29.87;29.84
65245;DHT22;51846;48.692;2.382;2022-07-29T16:15:42;29.95;30.75
65245;DHT22;51846;48.692;2.382;2022-07-29T16:18:07;30.06;30.47
65245;DHT22;51846;48.692;2.382;2022-07-29T16:20:35;30.12;30.83
65245;DHT22;51846;48.692;2.382;2022-07-29T16:23:00;30.07;30.94
65245;DHT22;51846;48.692;2.382;2022-07-29T16:25:25;29.96;31.11
65245;DHT22;51846;48.692;2.382;2022-07-29T16:27:51;29.97;30.44
65245;DHT22;51846;48.692;2.382;2022-07-29T16:30:16;29.96;30.86
65245;DHT22;51846;48.692;2.382;2022-07-29T16:32:42;29.96;30.42
65245;DHT22;51846;48.692;2.382;2022-07-29T16:35:07;29.97;30.25
65245;DHT22;51846;48.692;2.382;2022-07-29T16:37:34;30.03;30.65
65245;DHT22;51846;48.692;2.382;2022-07-29T16:40:02;29.97;30.34
65245;DHT22;51846;48.692;2.382;2022-07-29T16:42:27;29.87;30.45